Time;durP1;ratioP1;P1;durP2;ratioP2;P2;SDS_P1;SDS_P2;PMS_P1;PMS_P2;Temp;Humidity;BMP_temperature;BMP_pressure;BME280_temperature;BME280_humidity;BME280_pressure;Samples;Min_cycle;Max_cycle;Signal;HPM_P1;HPM_P2
2021/03/17 00:02:11;;;;;;;6.80;1.80;;;;;;;;;;5005434;28;20195;-47
2021/03/17 00:04:37;;;;;;;6.57;1.53;;;;;;;;;;5008564;28;20623;-51
2021/03/17 00:07:03;;;;;;;8.93;1.60;;;;;;;;;;5002886;28;20202;-51
2021/03/17 00:09:28;;;;;;;6.80;1.40;;;;;;;;;;5003932;28;20667;-51
2021/03/17 00:11:54;;;;;;;5.90;1.30;;;;;;;;;;5005448;28;20222;-51
2021/03/17 00:14:19;;;;;;;6.50;1.50;;;;;;;;;;4984959;28;20188;-52
2021/03/17 00:16:44;;;;;;;6.17;1.40;;;;;;;;;;5003409;28;20195;-51
2021/03/17 00:19:09;;;;;;;4.23;1.40;;;;;;;;;;5004016;28;20198;-50
2021/03/17 00:21:35;;;;;;;8.73;1.70;;;;;;;;;;5004880;28;20610;-52
2021/03/17 00:24:00;;;;;;;4.43;1.37;;;;;;;;;;5009183;28;20202;-51
2021/03/17 00:26:25;;;;;;;6.87;1.60;;;;;;;;;;5000765;28;20219;-52
2021/03/17 00:28:51;;;;;;;6.73;1.17;;;;;;;;;;5001703;28;20669;-47
2021/03/17 00:31:16;;;;;;;6.80;1.70;;;;;;;;;;5003497;28;20183;-51
2021/03/17 00:33:41;;;;;;;6.27;1.43;;;;;;;;;;5009132;28;20718;-53
2021/03/17 00:36:06;;;;;;;5.60;1.60;;;;;;;;;;5005011;28;20211;-52
2021/03/17 00:38:32;;;;;;;9.83;1.50;;;;;;;;;;5002071;28;20191;-52
2021/03/17 00:40:57;;;;;;;5.83;1.27;;;;;;;;;;5002381;28;20227;-50
2021/03/17 00:43:22;;;;;;;4.37;1.50;;;;;;;;;;5006443;28;20183;-52
2021/03/17 00:45:47;;;;;;;4.33;1.40;;;;;;;;;;5004277;28;20702;-49
2021/03/17 00:48:13;;;;;;;7.10;1.37;;;;;;;;;;5003993;28;20227;-52
2021/03/17 00:50:38;;;;;;;4.50;1.03;;;;;;;;;;5004068;28;20599;-49
2021/03/17 00:53:03;;;;;;;4.53;1.37;;;;;;;;;;5007666;28;20188;-51
2021/03/17 00:55:29;;;;;;;4.33;1.27;;;;;;;;;;5003362;28;20219;-49
2021/03/17 00:57:54;;;;;;;3.07;1.00;;;;;;;;;;5004803;28;20267;-52
2021/03/17 01:00:20;;;;;;;5.37;1.50;;;;;;;;;;5002720;28;20299;-50
2021/03/17 01:02:46;;;;;;;3.93;1.03;;;;;;;;;;5005280;28;20203;-52
2021/03/17 01:05:12;;;;;;;3.20;1.10;;;;;;;;;;4985621;28;20207;-48
2021/03/17 01:07:37;;;;;;;2.17;1.03;;;;;;;;;;5005467;28;20199;-49
2021/03/17 01:10:19;;;;;;;3.47;1.30;;;;;;;;;;5001221;28;20180;-49
2021/03/17 01:12:45;;;;;;;2.97;1.10;;;;;;;;;;5003954;28;20383;-49
2021/03/17 01:15:15;;;;;;;4.70;1.30;;;;;;;;;;5004959;28;20203;-50
2021/03/17 01:17:41;;;;;;;4.93;1.40;;;;;;;;;;5000113;28;20206;-51
2021/03/17 01:20:08;;;;;;;5.10;1.03;;;;;;;;;;5004138;28;20211;-54
2021/03/17 01:22:34;;;;;;;4.10;0.97;;;;;;;;;;5002118;28;20846;-50
2021/03/17 01:24:59;;;;;;;8.00;1.27;;;;;;;;;;5002313;28;20222;-52
2021/03/17 01:27:25;;;;;;;2.13;0.93;;;;;;;;;;5003810;28;20195;-53
2021/03/17 01:29:50;;;;;;;3.50;1.27;;;;;;;;;;5004817;28;20190;-50
2021/03/17 01:32:15;;;;;;;3.67;1.40;;;;;;;;;;4993672;28;20207;-51
2021/03/17 01:34:41;;;;;;;6.10;1.00;;;;;;;;;;5001235;28;20276;-48
2021/03/17 01:37:06;;;;;;;4.20;1.10;;;;;;;;;;4995046;28;20670;-49
2021/03/17 01:39:31;;;;;;;5.40;1.60;;;;;;;;;;5001939;28;20730;-50
2021/03/17 01:41:56;;;;;;;3.23;0.90;;;;;;;;;;5002982;28;20199;-52
2021/03/17 01:44:22;;;;;;;6.43;0.97;;;;;;;;;;5005237;28;20187;-51
2021/03/17 01:46:47;;;;;;;3.73;1.17;;;;;;;;;;4982598;28;20202;-50
2021/03/17 01:49:12;;;;;;;6.27;1.20;;;;;;;;;;5003317;28;20191;-49
2021/03/17 01:51:38;;;;;;;5.43;1.10;;;;;;;;;;5006350;28;20188;-55
2021/03/17 01:54:04;;;;;;;4.53;0.93;;;;;;;;;;5006221;28;20245;-48
2021/03/17 01:56:30;;;;;;;5.07;1.00;;;;;;;;;;4995795;28;20216;-48
2021/03/17 01:58:55;;;;;;;2.43;1.20;;;;;;;;;;4995734;28;20348;-50
2021/03/17 02:01:21;;;;;;;3.37;1.20;;;;;;;;;;5002637;28;20246;-51
2021/03/17 02:03:47;;;;;;;2.87;1.10;;;;;;;;;;5007019;28;20261;-53
2021/03/17 02:06:12;;;;;;;6.33;1.17;;;;;;;;;;5001797;28;20234;-52
2021/03/17 02:08:41;;;;;;;4.90;1.33;;;;;;;;;;5002288;28;20276;-51
2021/03/17 02:11:09;;;;;;;5.37;1.00;;;;;;;;;;4997974;28;20195;-52
2021/03/17 02:14:04;;;;;;;8.13;1.43;;;;;;;;;;5005987;28;20183;-53
2021/03/17 02:16:45;;;;;;;3.37;1.27;;;;;;;;;;5003636;28;20282;-50
2021/03/17 02:19:30;;;;;;;7.77;1.80;;;;;;;;;;5000396;28;20195;-48
2021/03/17 02:22:17;;;;;;;9.50;1.73;;;;;;;;;;4998403;28;20195;-50
2021/03/17 02:24:52;;;;;;;7.30;1.63;;;;;;;;;;5003425;28;20225;-51
2021/03/17 02:27:39;;;;;;;6.33;1.20;;;;;;;;;;5004427;28;20209;-50
2021/03/17 02:30:40;;;;;;;4.27;1.27;;;;;;;;;;5004634;28;20270;-52
2021/03/17 02:33:26;;;;;;;4.77;1.40;;;;;;;;;;4999999;28;20198;-49
2021/03/17 02:36:01;;;;;;;6.30;1.43;;;;;;;;;;5002693;28;20204;-50
2021/03/17 02:38:28;;;;;;;6.47;1.57;;;;;;;;;;5002312;28;20191;-49
2021/03/17 02:40:56;;;;;;;5.77;1.50;;;;;;;;;;5004577;28;20212;-52
2021/03/17 02:43:30;;;;;;;5.93;1.23;;;;;;;;;;5003657;28;20655;-51
2021/03/17 02:45:59;;;;;;;9.00;1.57;;;;;;;;;;5007030;28;20211;-53
2021/03/17 02:48:37;;;;;;;6.57;1.50;;;;;;;;;;4996742;28;20213;-50
2021/03/17 02:51:08;;;;;;;7.00;2.13;;;;;;;;;;5001716;28;20191;-48
2021/03/17 02:53:36;;;;;;;7.33;1.60;;;;;;;;;;4983289;28;20195;-53
2021/03/17 02:56:09;;;;;;;4.93;1.47;;;;;;;;;;5004432;28;20226;-50
2021/03/17 02:58:36;;;;;;;6.50;1.40;;;;;;;;;;4986837;28;20717;-51
2021/03/17 03:01:03;;;;;;;5.03;1.50;;;;;;;;;;4985739;28;20289;-51
2021/03/17 03:03:31;;;;;;;6.87;1.50;;;;;;;;;;5003352;28;20201;-51
2021/03/17 03:05:58;;;;;;;7.03;1.57;;;;;;;;;;4997217;28;20223;-48
2021/03/17 03:08:26;;;;;;;5.57;1.40;;;;;;;;;;4987845;28;20201;-53
2021/03/17 03:10:53;;;;;;;7.53;1.73;;;;;;;;;;4985097;28;20191;-48
2021/03/17 03:13:25;;;;;;;9.50;1.50;;;;;;;;;;5001435;28;20195;-54
2021/03/17 03:15:53;;;;;;;3.67;1.40;;;;;;;;;;4998174;28;20257;-52
2021/03/17 03:18:20;;;;;;;4.80;1.80;;;;;;;;;;5002718;28;20215;-52
2021/03/17 03:20:45;;;;;;;6.50;1.60;;;;;;;;;;5005415;28;20207;-52
2021/03/17 03:23:11;;;;;;;6.40;1.73;;;;;;;;;;4987857;28;20195;-52
2021/03/17 03:25:36;;;;;;;5.87;1.77;;;;;;;;;;5010372;28;20484;-51
2021/03/17 03:28:11;;;;;;;6.63;1.70;;;;;;;;;;4990225;28;20658;-48
2021/03/17 03:30:42;;;;;;;4.97;1.63;;;;;;;;;;5004859;28;20187;-47
2021/03/17 03:33:08;;;;;;;4.47;1.27;;;;;;;;;;5006223;28;20321;-51
2021/03/17 03:35:33;;;;;;;5.07;1.63;;;;;;;;;;5015384;28;20259;-52
2021/03/17 03:37:59;;;;;;;3.90;1.80;;;;;;;;;;5010250;28;20241;-49
2021/03/17 03:40:24;;;;;;;3.07;1.80;;;;;;;;;;5005556;28;20220;-49
2021/03/17 03:42:50;;;;;;;4.90;2.07;;;;;;;;;;5005506;28;20210;-49
2021/03/17 03:45:18;;;;;;;4.83;1.80;;;;;;;;;;4986742;28;20236;-52
2021/03/17 03:47:45;;;;;;;8.17;2.27;;;;;;;;;;5006369;28;20190;-49
2021/03/17 03:50:13;;;;;;;5.90;2.20;;;;;;;;;;5013316;28;20237;-48
2021/03/17 03:53:08;;;;;;;5.20;1.87;;;;;;;;;;5008399;28;20188;-50
2021/03/17 03:56:07;;;;;;;9.47;1.90;;;;;;;;;;4998388;28;20315;-50
2021/03/17 03:58:46;;;;;;;10.13;2.30;;;;;;;;;;4985551;28;20246;-50
2021/03/17 04:01:20;;;;;;;5.90;2.10;;;;;;;;;;5011465;28;20243;-51
2021/03/17 04:03:52;;;;;;;5.73;2.03;;;;;;;;;;5010239;28;20608;-50
2021/03/17 04:06:18;;;;;;;7.27;1.70;;;;;;;;;;4990457;28;20211;-51
2021/03/17 04:08:46;;;;;;;3.87;2.03;;;;;;;;;;4979765;28;20706;-51
2021/03/17 04:11:14;;;;;;;7.73;2.27;;;;;;;;;;5005030;28;20495;-49
2021/03/17 04:13:41;;;;;;;10.97;2.63;;;;;;;;;;5009676;28;20239;-50
2021/03/17 04:16:09;;;;;;;9.67;2.27;;;;;;;;;;5004353;28;20211;-52
2021/03/17 04:18:46;;;;;;;3.90;2.00;;;;;;;;;;5006636;28;20191;-49
2021/03/17 04:21:25;;;;;;;7.20;2.10;;;;;;;;;;5010834;28;20211;-50
2021/03/17 04:23:54;;;;;;;9.20;2.47;;;;;;;;;;4998020;28;20622;-51
2021/03/17 04:26:20;;;;;;;6.17;2.80;;;;;;;;;;5001903;28;20215;-53
2021/03/17 04:28:47;;;;;;;4.20;2.40;;;;;;;;;;5008703;28;20274;-48
2021/03/17 04:31:14;;;;;;;4.83;2.57;;;;;;;;;;5008430;28;20195;-49
2021/03/17 04:33:41;;;;;;;6.20;2.73;;;;;;;;;;5000932;28;20199;-50
2021/03/17 04:36:08;;;;;;;4.80;2.43;;;;;;;;;;5014301;28;20557;-50
2021/03/17 04:38:34;;;;;;;5.63;2.70;;;;;;;;;;5009474;28;20705;-50
2021/03/17 04:41:00;;;;;;;7.97;3.20;;;;;;;;;;5011329;28;20246;-50
2021/03/17 04:43:26;;;;;;;7.30;2.80;;;;;;;;;;5005769;28;20223;-52
2021/03/17 04:45:52;;;;;;;7.03;3.20;;;;;;;;;;4989268;28;20248;-50
2021/03/17 04:48:19;;;;;;;8.73;3.13;;;;;;;;;;5008699;28;20637;-51
2021/03/17 04:50:46;;;;;;;7.47;3.13;;;;;;;;;;5010522;28;20191;-50
2021/03/17 04:53:12;;;;;;;6.37;2.93;;;;;;;;;;5011859;28;20227;-50
2021/03/17 04:55:38;;;;;;;6.13;3.10;;;;;;;;;;4998515;28;20692;-49
2021/03/17 04:58:08;;;;;;;6.10;4.00;;;;;;;;;;5009305;28;20191;-52
2021/03/17 05:00:36;;;;;;;6.80;3.07;;;;;;;;;;5004331;28;20207;-52
2021/03/17 05:03:09;;;;;;;9.77;3.73;;;;;;;;;;5006203;28;20282;-52
2021/03/17 05:05:38;;;;;;;9.73;3.47;;;;;;;;;;4991091;28;20213;-50
2021/03/17 05:08:06;;;;;;;7.10;2.93;;;;;;;;;;4990722;28;20198;-48
2021/03/17 05:10:32;;;;;;;4.30;2.80;;;;;;;;;;4987563;28;20194;-49
2021/03/17 05:12:58;;;;;;;5.17;2.83;;;;;;;;;;5015081;28;20199;-47
2021/03/17 05:15:24;;;;;;;6.03;2.80;;;;;;;;;;4984439;28;20204;-52
2021/03/17 05:17:50;;;;;;;4.93;2.67;;;;;;;;;;5009333;28;20222;-49
2021/03/17 05:20:18;;;;;;;7.57;2.80;;;;;;;;;;5004774;28;20207;-49
2021/03/17 05:22:45;;;;;;;8.00;2.73;;;;;;;;;;4982087;28;20278;-48
2021/03/17 05:25:11;;;;;;;5.13;1.90;;;;;;;;;;4991965;28;20353;-50
2021/03/17 05:27:38;;;;;;;4.10;2.17;;;;;;;;;;4991194;28;20199;-51
2021/03/17 05:30:09;;;;;;;3.77;2.20;;;;;;;;;;5005593;28;20281;-48
2021/03/17 05:32:35;;;;;;;6.20;2.10;;;;;;;;;;5009774;28;20187;-50
2021/03/17 05:35:05;;;;;;;7.33;2.20;;;;;;;;;;5010170;28;20222;-51
2021/03/17 05:37:30;;;;;;;6.03;2.20;;;;;;;;;;5012300;28;20273;-51
2021/03/17 05:39:56;;;;;;;4.43;1.43;;;;;;;;;;5007097;28;20372;-49
2021/03/17 05:42:22;;;;;;;5.50;2.00;;;;;;;;;;5009410;28;20240;-49
2021/03/17 05:44:48;;;;;;;5.33;1.83;;;;;;;;;;5005569;28;20224;-50
2021/03/17 05:47:14;;;;;;;6.23;2.03;;;;;;;;;;5012501;28;20415;-52
2021/03/17 05:49:40;;;;;;;9.90;2.13;;;;;;;;;;5006923;28;20655;-51
2021/03/17 05:52:07;;;;;;;4.33;2.00;;;;;;;;;;5006128;28;20198;-49
2021/03/17 05:54:33;;;;;;;8.00;2.43;;;;;;;;;;5011270;28;20570;-51
2021/03/17 05:57:00;;;;;;;7.13;2.00;;;;;;;;;;5008689;28;20258;-47
2021/03/17 05:59:26;;;;;;;4.63;2.03;;;;;;;;;;4987577;28;20188;-53
2021/03/17 06:01:54;;;;;;;6.70;2.50;;;;;;;;;;4988219;28;20609;-47
2021/03/17 06:04:20;;;;;;;6.80;2.87;;;;;;;;;;5000536;28;20189;-50
2021/03/17 06:06:45;;;;;;;8.83;2.67;;;;;;;;;;5006359;28;20448;-50
2021/03/17 06:09:12;;;;;;;8.33;3.03;;;;;;;;;;5004559;28;20195;-50
2021/03/17 06:11:39;;;;;;;6.27;3.40;;;;;;;;;;5003233;28;20620;-50
2021/03/17 06:14:11;;;;;;;8.77;3.60;;;;;;;;;;5009829;28;20283;-51
2021/03/17 06:16:41;;;;;;;9.90;3.87;;;;;;;;;;4983173;28;20189;-51
2021/03/17 06:19:08;;;;;;;7.13;4.10;;;;;;;;;;5005755;28;20229;-51
2021/03/17 06:21:33;;;;;;;10.83;3.90;;;;;;;;;;5003451;28;20699;-50
2021/03/17 06:23:59;;;;;;;6.50;4.00;;;;;;;;;;5007562;28;20286;-52
2021/03/17 06:26:24;;;;;;;6.83;3.80;;;;;;;;;;4985373;28;20243;-50
2021/03/17 06:28:50;;;;;;;7.87;3.80;;;;;;;;;;5007885;28;20288;-49
2021/03/17 06:31:15;;;;;;;10.30;3.80;;;;;;;;;;5009058;28;20198;-48
2021/03/17 06:33:44;;;;;;;8.20;4.23;;;;;;;;;;5007540;28;20273;-49
2021/03/17 06:36:16;;;;;;;7.80;3.97;;;;;;;;;;4999667;28;20255;-52
2021/03/17 06:38:43;;;;;;;8.10;3.90;;;;;;;;;;5001138;28;20286;-51
2021/03/17 06:41:08;;;;;;;8.00;4.17;;;;;;;;;;4997996;28;20230;-51
2021/03/17 06:43:43;;;;;;;8.03;4.20;;;;;;;;;;5006841;28;20199;-50
2021/03/17 06:46:10;;;;;;;9.20;3.53;;;;;;;;;;5001020;28;20264;-51
2021/03/17 06:48:38;;;;;;;11.47;4.10;;;;;;;;;;5002999;28;20653;-50
2021/03/17 06:51:05;;;;;;;8.47;4.10;;;;;;;;;;5006291;28;20579;-50
2021/03/17 06:53:39;;;;;;;6.67;3.77;;;;;;;;;;5001290;28;20187;-47
2021/03/17 06:56:10;;;;;;;6.17;3.37;;;;;;;;;;5004504;28;20210;-49
2021/03/17 06:58:40;;;;;;;6.57;4.30;;;;;;;;;;4999600;28;20199;-51
2021/03/17 07:01:28;;;;;;;5.73;3.23;;;;;;;;;;5007418;28;20712;-49
2021/03/17 07:03:58;;;;;;;5.43;3.37;;;;;;;;;;5002879;28;20199;-52
2021/03/17 07:06:24;;;;;;;6.43;3.80;;;;;;;;;;4982997;28;20239;-50
2021/03/17 07:08:50;;;;;;;8.43;3.77;;;;;;;;;;5007133;28;20690;-52
2021/03/17 07:11:24;;;;;;;6.47;3.90;;;;;;;;;;4985462;28;20674;-52
2021/03/17 07:14:26;;;;;;;11.03;4.40;;;;;;;;;;4994293;28;20214;-54
2021/03/17 07:16:52;;;;;;;8.37;3.30;;;;;;;;;;5007465;28;20194;-53
2021/03/17 07:19:37;;;;;;;7.80;3.60;;;;;;;;;;5002655;28;20260;-50
2021/03/17 07:22:04;;;;;;;7.53;3.27;;;;;;;;;;4987375;28;20730;-52
2021/03/17 07:24:30;;;;;;;7.47;3.00;;;;;;;;;;5008644;28;20219;-52
2021/03/17 07:27:11;;;;;;;5.67;2.90;;;;;;;;;;5009456;28;20191;-51
2021/03/17 07:29:36;;;;;;;6.77;2.93;;;;;;;;;;4997960;28;20199;-51
2021/03/17 07:32:01;;;;;;;4.30;2.83;;;;;;;;;;5012559;28;20624;-47
2021/03/17 07:34:27;;;;;;;7.03;3.07;;;;;;;;;;5005867;28;20233;-50
2021/03/17 07:37:08;;;;;;;9.00;3.10;;;;;;;;;;5009361;28;20194;-50
2021/03/17 07:39:41;;;;;;;6.93;3.20;;;;;;;;;;5010101;28;20187;-51
2021/03/17 07:42:11;;;;;;;7.23;3.13;;;;;;;;;;4992645;28;20567;-53
2021/03/17 07:44:41;;;;;;;4.93;2.90;;;;;;;;;;5004668;28;20219;-52
2021/03/17 07:47:09;;;;;;;4.53;3.00;;;;;;;;;;4997403;28;20230;-52
2021/03/17 07:49:36;;;;;;;6.07;2.80;;;;;;;;;;5011749;28;20238;-52
2021/03/17 07:52:02;;;;;;;5.87;2.97;;;;;;;;;;5006324;28;20190;-51
2021/03/17 07:54:33;;;;;;;5.40;2.50;;;;;;;;;;5008312;28;20187;-52
2021/03/17 07:57:05;;;;;;;7.30;2.80;;;;;;;;;;5004943;28;20254;-53
2021/03/17 07:59:31;;;;;;;4.60;2.60;;;;;;;;;;5009918;28;20269;-50
2021/03/17 08:01:58;;;;;;;4.80;2.87;;;;;;;;;;5004667;28;20661;-51
2021/03/17 08:04:29;;;;;;;6.15;2.70;;;;;;;;;;5005578;28;20213;-52
2021/03/17 08:06:59;;;;;;;5.88;2.17;;;;;;;;;;4990294;28;20188;-54
2021/03/17 08:09:24;;;;;;;5.28;2.00;;;;;;;;;;4984926;28;20199;-51
2021/03/17 08:11:51;;;;;;;8.00;2.38;;;;;;;;;;5007571;28;20538;-52
2021/03/17 08:14:18;;;;;;;6.88;2.22;;;;;;;;;;4999817;28;20192;-52
2021/03/17 08:16:45;;;;;;;5.30;2.33;;;;;;;;;;4997554;28;20850;-54
2021/03/17 08:19:22;;;;;;;6.07;2.10;;;;;;;;;;4998370;28;20724;-52
2021/03/17 08:21:49;;;;;;;5.60;2.10;;;;;;;;;;5008554;28;20218;-50
2021/03/17 08:24:41;;;;;;;8.98;2.10;;;;;;;;;;4989246;28;20737;-52
2021/03/17 08:27:09;;;;;;;6.05;2.47;;;;;;;;;;4993408;28;20468;-53
2021/03/17 08:29:39;;;;;;;8.38;2.15;;;;;;;;;;4990516;28;20184;-51
2021/03/17 08:32:07;;;;;;;6.30;2.22;;;;;;;;;;4992817;28;20180;-52
2021/03/17 08:34:33;;;;;;;4.85;2.25;;;;;;;;;;5005297;28;20684;-53
2021/03/17 08:37:03;;;;;;;8.30;2.13;;;;;;;;;;5002240;28;20187;-52
2021/03/17 08:39:28;;;;;;;3.58;2.28;;;;;;;;;;5002023;28;20187;-51
2021/03/17 08:41:55;;;;;;;5.15;2.75;;;;;;;;;;5001564;28;20222;-52
2021/03/17 08:44:21;;;;;;;4.00;2.45;;;;;;;;;;5005266;28;20195;-51
2021/03/17 08:46:47;;;;;;;7.45;2.90;;;;;;;;;;5006443;28;20191;-51
2021/03/17 08:49:14;;;;;;;4.63;2.75;;;;;;;;;;4993237;28;20187;-53
2021/03/17 08:51:45;;;;;;;6.13;2.67;;;;;;;;;;5004078;28;20206;-51
2021/03/17 08:54:29;;;;;;;6.60;2.50;;;;;;;;;;5008941;28;20191;-52
2021/03/17 08:56:55;;;;;;;5.10;2.17;;;;;;;;;;5006547;28;20192;-52
2021/03/17 08:59:20;;;;;;;4.25;2.10;;;;;;;;;;5003147;28;20207;-50
2021/03/17 09:01:46;;;;;;;6.85;1.88;;;;;;;;;;5002266;28;20222;-52
2021/03/17 09:04:43;;;;;;;7.43;1.98;;;;;;;;;;5002247;28;20647;-50
2021/03/17 09:07:11;;;;;;;5.28;1.55;;;;;;;;;;5007395;28;20195;-52
2021/03/17 09:09:47;;;;;;;5.97;1.45;;;;;;;;;;5006216;28;20187;-53
2021/03/17 09:12:15;;;;;;;4.03;1.30;;;;;;;;;;5004962;28;20214;-53
2021/03/17 09:14:40;;;;;;;3.20;1.20;;;;;;;;;;4995976;28;20306;-54
2021/03/17 09:17:11;;;;;;;5.33;1.10;;;;;;;;;;5006532;28;20619;-52
2021/03/17 09:20:06;;;;;;;7.20;1.53;;;;;;;;;;5004660;28;20213;-53
2021/03/17 09:22:39;;;;;;;3.67;1.20;;;;;;;;;;5006195;28;20194;-52
2021/03/17 09:25:26;;;;;;;4.50;1.37;;;;;;;;;;5005272;28;20647;-53
2021/03/17 09:28:03;;;;;;;6.53;1.43;;;;;;;;;;5007017;28;20652;-51
2021/03/17 09:30:41;;;;;;;4.03;1.60;;;;;;;;;;5007213;28;20244;-52
2021/03/17 09:33:13;;;;;;;4.13;1.13;;;;;;;;;;5000388;28;20663;-51
2021/03/17 09:35:40;;;;;;;4.10;1.20;;;;;;;;;;4991368;28;20240;-50
2021/03/17 09:38:11;;;;;;;2.10;1.00;;;;;;;;;;5005393;28;20199;-52
2021/03/17 09:40:44;;;;;;;3.35;1.40;;;;;;;;;;5007809;28;20627;-51
2021/03/17 09:43:39;;;;;;;3.58;1.08;;;;;;;;;;5005428;28;20217;-51
2021/03/17 09:46:32;;;;;;;3.60;1.30;;;;;;;;;;5000465;28;20289;-51
2021/03/17 09:49:03;;;;;;;2.55;1.10;;;;;;;;;;5005756;28;20184;-52
2021/03/17 09:51:32;;;;;;;4.85;1.33;;;;;;;;;;5001634;28;20215;-51
2021/03/17 09:53:59;;;;;;;3.50;1.00;;;;;;;;;;5007589;28;20183;-52
2021/03/17 09:56:33;;;;;;;4.28;1.60;;;;;;;;;;5003649;28;20297;-52
2021/03/17 09:59:15;;;;;;;3.25;1.40;;;;;;;;;;5003243;28;20187;-53
2021/03/17 10:01:52;;;;;;;4.75;1.50;;;;;;;;;;5003807;28;20642;-52
2021/03/17 10:04:29;;;;;;;3.72;1.48;;;;;;;;;;4990219;28;20191;-50
2021/03/17 10:06:55;;;;;;;4.47;1.50;;;;;;;;;;5004232;28;20198;-52
2021/03/17 10:09:24;;;;;;;4.80;1.60;;;;;;;;;;5006309;28;20192;-52
2021/03/17 10:11:58;;;;;;;2.67;1.17;;;;;;;;;;5005577;28;20676;-55
2021/03/17 10:14:24;;;;;;;3.95;1.67;;;;;;;;;;5003233;28;20652;-54
2021/03/17 10:16:50;;;;;;;7.80;1.48;;;;;;;;;;5003287;28;20747;-51
2021/03/17 10:19:15;;;;;;;6.72;1.73;;;;;;;;;;5005762;28;20318;-50
2021/03/17 10:21:42;;;;;;;4.38;1.60;;;;;;;;;;4992253;28;20243;-52
2021/03/17 10:24:09;;;;;;;5.35;1.58;;;;;;;;;;5007889;28;20195;-52
2021/03/17 10:26:36;;;;;;;3.78;1.60;;;;;;;;;;5003910;28;20269;-51
2021/03/17 10:29:03;;;;;;;5.22;1.60;;;;;;;;;;4989589;28;20191;-51
2021/03/17 10:31:33;;;;;;;5.25;1.40;;;;;;;;;;5015550;28;20187;-53
2021/03/17 10:33:59;;;;;;;3.83;1.60;;;;;;;;;;4987905;28;20249;-51
2021/03/17 10:36:26;;;;;;;3.67;1.38;;;;;;;;;;5005450;28;20598;-51
2021/03/17 10:38:54;;;;;;;7.15;1.63;;;;;;;;;;5006575;28;20659;-52
2021/03/17 10:41:38;;;;;;;4.07;1.58;;;;;;;;;;5004185;28;20215;-52
2021/03/17 10:44:14;;;;;;;5.80;1.95;;;;;;;;;;4986700;28;20214;-52
2021/03/17 10:47:02;;;;;;;5.70;1.67;;;;;;;;;;5004434;28;20259;-50
2021/03/17 10:49:28;;;;;;;4.50;1.50;;;;;;;;;;4999570;28;20675;-53
2021/03/17 10:51:55;;;;;;;4.45;1.60;;;;;;;;;;5000913;28;20187;-51
2021/03/17 10:54:53;;;;;;;3.78;1.27;;;;;;;;;;5001872;28;20191;-52
2021/03/17 10:57:20;;;;;;;4.28;1.35;;;;;;;;;;4961123;28;20278;-53
2021/03/17 10:59:46;;;;;;;5.70;1.35;;;;;;;;;;5005136;28;20194;-52
2021/03/17 11:02:25;;;;;;;3.58;1.60;;;;;;;;;;5010755;28;20211;-51
2021/03/17 11:05:09;;;;;;;3.42;1.30;;;;;;;;;;4996183;28;20682;-50
2021/03/17 11:07:50;;;;;;;6.55;1.63;;;;;;;;;;5004102;28;20278;-53
2021/03/17 11:10:48;;;;;;;7.00;1.90;;;;;;;;;;5001853;28;20194;-52
2021/03/17 11:13:15;;;;;;;2.80;1.30;;;;;;;;;;5002135;28;20180;-52
2021/03/17 11:15:46;;;;;;;3.78;1.30;;;;;;;;;;5003445;28;20781;-51
2021/03/17 11:18:26;;;;;;;3.33;1.50;;;;;;;;;;5006480;28;20312;-55
2021/03/17 11:20:57;;;;;;;4.35;1.60;;;;;;;;;;5004035;28;20322;-52
2021/03/17 11:23:25;;;;;;;5.72;1.73;;;;;;;;;;5003884;28;20210;-50
2021/03/17 11:25:53;;;;;;;5.88;1.50;;;;;;;;;;4985237;28;20238;-52
2021/03/17 11:28:20;;;;;;;7.00;2.25;;;;;;;;;;5006275;28;20596;-52
2021/03/17 11:30:48;;;;;;;8.40;2.85;;;;;;;;;;5007048;28;20240;-52
2021/03/17 11:33:14;;;;;;;8.90;2.50;;;;;;;;;;5013404;28;20844;-50
2021/03/17 11:35:41;;;;;;;8.07;2.28;;;;;;;;;;5005691;28;20738;-51
2021/03/17 11:38:06;;;;;;;7.70;2.42;;;;;;;;;;5008072;28;20202;-52
2021/03/17 11:40:32;;;;;;;8.95;2.45;;;;;;;;;;5005746;28;20207;-53
2021/03/17 11:43:11;;;;;;;8.23;2.67;;;;;;;;;;5003655;28;20267;-50
2021/03/17 11:45:37;;;;;;;7.18;1.83;;;;;;;;;;4987654;28;20207;-52
2021/03/17 11:48:03;;;;;;;8.50;2.17;;;;;;;;;;5003367;28;20180;-51
2021/03/17 11:50:29;;;;;;;5.43;1.60;;;;;;;;;;5004651;28;20253;-52
2021/03/17 11:52:54;;;;;;;12.97;2.80;;;;;;;;;;5004082;28;20183;-50
2021/03/17 11:55:21;;;;;;;10.43;2.77;;;;;;;;;;5015576;28;20624;-51
2021/03/17 11:57:47;;;;;;;7.73;1.53;;;;;;;;;;4988540;28;20629;-53
2021/03/17 12:00:12;;;;;;;10.57;2.30;;;;;;;;;;4998894;28;20242;-51
2021/03/17 12:02:38;;;;;;;21.13;4.63;;;;;;;;;;4990728;28;20284;-52
2021/03/17 12:05:04;;;;;;;10.50;2.43;;;;;;;;;;5009054;28;20623;-52
2021/03/17 12:07:30;;;;;;;8.00;2.23;;;;;;;;;;5007679;28;20233;-51
2021/03/17 12:09:55;;;;;;;10.73;3.27;;;;;;;;;;5007440;28;20954;-54
2021/03/17 12:12:21;;;;;;;4.60;1.63;;;;;;;;;;5016741;28;20182;-52
2021/03/17 12:14:46;;;;;;;11.20;2.93;;;;;;;;;;5005504;28;20214;-53
2021/03/17 12:17:14;;;;;;;13.10;3.10;;;;;;;;;;5007271;28;20238;-51
2021/03/17 12:19:39;;;;;;;10.87;2.80;;;;;;;;;;5004640;28;20203;-51
2021/03/17 12:22:04;;;;;;;13.70;3.50;;;;;;;;;;4986904;28;20230;-51
2021/03/17 12:24:30;;;;;;;10.63;2.80;;;;;;;;;;5004872;28;20207;-53
2021/03/17 12:26:55;;;;;;;8.83;2.63;;;;;;;;;;5007033;28;20222;-50
2021/03/17 12:29:21;;;;;;;4.80;1.60;;;;;;;;;;4980374;28;20187;-53
2021/03/17 12:31:46;;;;;;;8.57;2.30;;;;;;;;;;5000175;28;20250;-51
2021/03/17 12:34:11;;;;;;;10.10;2.80;;;;;;;;;;5002405;28;20282;-53
2021/03/17 12:36:37;;;;;;;8.63;2.40;;;;;;;;;;5004477;28;20330;-50
2021/03/17 12:39:04;;;;;;;6.13;2.00;;;;;;;;;;5009900;28;20266;-53
2021/03/17 12:41:29;;;;;;;4.27;1.60;;;;;;;;;;4994492;28;20205;-52
2021/03/17 12:43:55;;;;;;;5.73;1.50;;;;;;;;;;5005886;28;20200;-53
2021/03/17 12:46:20;;;;;;;6.07;1.90;;;;;;;;;;5008918;28;20230;-50
2021/03/17 12:48:45;;;;;;;8.47;2.83;;;;;;;;;;4989691;28;20180;-52
2021/03/17 12:51:10;;;;;;;7.83;2.60;;;;;;;;;;4991619;28;20187;-50
2021/03/17 12:53:36;;;;;;;3.90;1.40;;;;;;;;;;4991069;28;20294;-51
2021/03/17 12:56:03;;;;;;;8.30;2.57;;;;;;;;;;4988488;28;20393;-52
2021/03/17 12:58:30;;;;;;;4.87;1.60;;;;;;;;;;4989527;28;21126;-51
2021/03/17 13:00:55;;;;;;;3.53;1.43;;;;;;;;;;5004772;28;20207;-51
2021/03/17 13:03:20;;;;;;;4.93;1.80;;;;;;;;;;5006468;28;20421;-53
2021/03/17 13:05:46;;;;;;;5.63;1.80;;;;;;;;;;5003906;28;20211;-52
2021/03/17 13:08:11;;;;;;;4.93;1.50;;;;;;;;;;5005015;28;20187;-49
2021/03/17 13:10:38;;;;;;;4.63;1.60;;;;;;;;;;5005187;28;20191;-50
2021/03/17 13:13:04;;;;;;;3.73;1.47;;;;;;;;;;5003523;28;20206;-55
2021/03/17 13:15:29;;;;;;;8.30;2.40;;;;;;;;;;5005558;28;20214;-51
2021/03/17 13:17:55;;;;;;;8.63;2.00;;;;;;;;;;5006825;28;20195;-52
2021/03/17 13:20:22;;;;;;;3.60;1.60;;;;;;;;;;5008200;28;20215;-51
2021/03/17 13:22:48;;;;;;;6.57;1.90;;;;;;;;;;5008279;28;20287;-51
2021/03/17 13:25:13;;;;;;;8.10;2.53;;;;;;;;;;5004865;28;20302;-51
2021/03/17 13:27:39;;;;;;;6.23;2.00;;;;;;;;;;5004191;28;20692;-50
2021/03/17 13:30:07;;;;;;;7.73;2.80;;;;;;;;;;5008471;28;20191;-52
2021/03/17 13:32:32;;;;;;;2.93;1.70;;;;;;;;;;5008832;28;20206;-50
2021/03/17 13:34:57;;;;;;;3.73;1.67;;;;;;;;;;5002750;28;20591;-55
2021/03/17 13:37:23;;;;;;;7.33;1.93;;;;;;;;;;5006460;28;21321;-52
2021/03/17 13:39:51;;;;;;;4.77;1.73;;;;;;;;;;5009159;28;20191;-51
2021/03/17 13:42:19;;;;;;;6.93;2.00;;;;;;;;;;5007128;28;20306;-49
2021/03/17 13:44:44;;;;;;;5.57;1.77;;;;;;;;;;4989739;28;20213;-52
2021/03/17 13:47:10;;;;;;;4.60;1.47;;;;;;;;;;5003140;28;20203;-51
2021/03/17 13:49:35;;;;;;;7.57;2.20;;;;;;;;;;5008055;28;20249;-50
2021/03/17 13:52:01;;;;;;;7.80;2.20;;;;;;;;;;5005234;28;20175;-50
2021/03/17 13:54:27;;;;;;;5.30;1.93;;;;;;;;;;5005946;28;20774;-55
2021/03/17 13:56:54;;;;;;;2.90;1.50;;;;;;;;;;5008849;28;20180;-56
2021/03/17 13:59:19;;;;;;;4.33;1.80;;;;;;;;;;5005431;28;20317;-54
2021/03/17 14:01:45;;;;;;;8.17;2.27;;;;;;;;;;5006185;28;20239;-51
2021/03/17 14:04:10;;;;;;;3.63;1.87;;;;;;;;;;5005083;28;20195;-51
2021/03/17 14:06:35;;;;;;;6.23;2.00;;;;;;;;;;4990962;28;20201;-54
2021/03/17 14:09:01;;;;;;;6.27;1.80;;;;;;;;;;5003723;28;20187;-52
2021/03/17 14:11:28;;;;;;;4.60;1.70;;;;;;;;;;5003968;28;20189;-49
2021/03/17 14:13:53;;;;;;;4.60;1.70;;;;;;;;;;5000032;28;20726;-49
2021/03/17 14:16:19;;;;;;;3.77;1.57;;;;;;;;;;5002128;28;20211;-52
2021/03/17 14:18:44;;;;;;;5.33;1.67;;;;;;;;;;5006064;28;20751;-50
2021/03/17 14:21:09;;;;;;;3.77;1.63;;;;;;;;;;5005642;28;20211;-49
2021/03/17 14:23:34;;;;;;;5.57;2.00;;;;;;;;;;5007178;28;20564;-49
2021/03/17 14:26:00;;;;;;;5.00;1.40;;;;;;;;;;5004395;28;20319;-50
2021/03/17 14:28:25;;;;;;;4.97;1.40;;;;;;;;;;4999290;28;20191;-53
2021/03/17 14:30:50;;;;;;;6.37;2.30;;;;;;;;;;5007594;28;20184;-49
2021/03/17 14:33:15;;;;;;;4.27;1.53;;;;;;;;;;5006660;28;20195;-51
2021/03/17 14:35:41;;;;;;;4.30;1.60;;;;;;;;;;4986783;28;20278;-51
2021/03/17 14:38:07;;;;;;;4.77;1.43;;;;;;;;;;5002813;28;20282;-49
2021/03/17 14:40:33;;;;;;;6.73;1.97;;;;;;;;;;5003179;28;20242;-52
2021/03/17 14:42:59;;;;;;;3.03;1.10;;;;;;;;;;5002699;28;20195;-50
2021/03/17 14:45:25;;;;;;;4.17;1.60;;;;;;;;;;4983964;28;20530;-48
2021/03/17 14:47:50;;;;;;;2.10;1.17;;;;;;;;;;5000177;28;20284;-51
2021/03/17 14:50:16;;;;;;;4.60;1.50;;;;;;;;;;4997669;28;20183;-51
2021/03/17 14:52:41;;;;;;;3.87;1.80;;;;;;;;;;4996812;28;20227;-50
2021/03/17 14:55:07;;;;;;;4.40;1.67;;;;;;;;;;5003702;28;20698;-49